Aviation Digital Data Service (ADDS)

Output produced by METARs form (1200 UTC 01 July 2015)
found at http://aviationweather.gov/adds/metars/
 
KGSO 011120Z 0112/0212 25008KT P6SM SCT250